Česky Dansk Deutsch English Español Suomi Français Magyar Italiano Nederlands norsk Polski Português svenska Türkçe

 

Het Weer

KQYL ()

08:55, 24 februari 2012 (GMT)

 
WE
 
Home            
Takoradi Saltpond Axim Accra Ada Akim Oda Koforidua Akuse Adiake Lome Abidjan Ho Sefwi Bekwai S. Tome Tabligbo Cotonou Kumasi Lagos / Ikeja Bohicon Principe Atakpame Sunyani Sassandra

Om een weerknop op uw website of weblog te plaatsen, copieer onderstaande code en plak die in uw pagina. In het eerste vakje staat HTML-code, in het tweede vakje UBB-code.


Add to Google

Details

Wind speed:1 bf, 3 kn, 1.5 m/s, 3.5 miles/h, 5.6 km/h
Wind direction:Variable
Visibility:Greater than 10000 m, 10 km, 32800 ft, 6.2 miles
Clouds:Heiter at  ft,  m
Temperature:-1°C, 30°F
Gefühlte Temperatur:-3°C, 26°F
Dew-point:-16°C, 3°F
Atmospheric pressure:1018 hPa, 763.3 mmHg, 30.05 inHg, 1.004 atm
Relative humidity:30.9 %
METAR:KQYL 240855Z AUTO VRB03KT 9999 CLR M01/M16 A3005 RMK AO2 SLP331 T10141156 57014

Snelkoppelingen

Actuele weersinformatie van de hele wereld. Voeg locaties toe met het plus (+) symbool. Deze snelkoppelingen kunnen worden toegevoegd aan Google.

Lid van de Technetium groep

website free tracking
StatCounter NetStat W3C Validator

09-02-2023 12:46:37
astro.technetium.be money.technetium.be phote.technetium.be tafeltennistafel.technetium.be www.ligfiets.net